createdAt,value
2018-06-21T00:01:07.180Z,5.08
2018-06-21T00:03:41.302Z,5.65
2018-06-21T00:06:15.696Z,5.33
2018-06-21T00:08:50.521Z,4.97
2018-06-21T00:11:24.749Z,5.30
2018-06-21T00:13:58.729Z,5.40
2018-06-21T00:16:32.615Z,5.60
2018-06-21T00:19:06.503Z,5.92
2018-06-21T00:21:40.890Z,5.05
2018-06-21T00:24:15.106Z,5.33
2018-06-21T00:26:49.072Z,5.35
2018-06-21T00:29:23.192Z,4.97
2018-06-21T00:31:56.973Z,5.50
2018-06-21T00:34:31.104Z,5.25
2018-06-21T00:37:04.952Z,5.67
2018-06-21T00:39:38.948Z,5.10
2018-06-21T00:42:12.717Z,4.85
2018-06-21T00:44:46.761Z,4.92
2018-06-21T00:47:20.933Z,5.10
2018-06-21T00:49:54.854Z,5.05
2018-06-21T00:52:28.711Z,5.40
2018-06-21T00:55:02.825Z,5.85
2018-06-21T00:57:36.824Z,5.10
2018-06-21T01:00:11.184Z,5.03
2018-06-21T01:02:49.151Z,5.15
2018-06-21T01:05:23.441Z,5.30
2018-06-21T01:07:57.235Z,5.50
2018-06-21T01:10:31.714Z,4.85
2018-06-21T01:13:06.002Z,4.72
2018-06-21T01:15:39.875Z,4.78
2018-06-21T01:18:13.824Z,4.85
2018-06-21T01:20:48.063Z,5.12
2018-06-21T01:23:21.960Z,4.50
2018-06-21T01:25:55.956Z,5.20
2018-06-21T01:28:29.988Z,5.47
2018-06-21T01:31:04.114Z,5.20
2018-06-21T01:33:37.917Z,5.50
2018-06-21T01:36:11.871Z,5.17
2018-06-21T01:38:45.925Z,5.33
2018-06-21T01:41:20.127Z,5.40
2018-06-21T01:43:54.080Z,5.37
2018-06-21T01:46:28.259Z,4.93
2018-06-21T01:49:02.250Z,5.40
2018-06-21T01:51:36.813Z,6.20
2018-06-21T01:54:10.665Z,5.50
2018-06-21T01:56:44.678Z,5.55
2018-06-21T01:59:18.581Z,5.25
2018-06-21T02:01:52.546Z,5.00
2018-06-21T02:04:26.563Z,5.40
2018-06-21T02:07:00.743Z,5.25
2018-06-21T02:09:34.461Z,5.50
2018-06-21T02:14:49.228Z,5.67
2018-06-21T02:17:23.435Z,5.67
2018-06-21T02:19:57.314Z,6.37
2018-06-21T02:22:32.638Z,6.17
2018-06-21T02:25:06.558Z,6.10
2018-06-21T02:27:40.570Z,5.58
2018-06-21T02:30:14.434Z,5.05
2018-06-21T02:32:48.583Z,5.37
2018-06-21T02:35:22.681Z,5.80
2018-06-21T02:37:56.643Z,5.60
2018-06-21T02:40:30.553Z,5.55
2018-06-21T02:43:05.209Z,6.75
2018-06-21T02:45:39.409Z,5.95
2018-06-21T02:48:13.608Z,6.05
2018-06-21T02:50:47.713Z,6.08
2018-06-21T02:53:21.599Z,5.75
2018-06-21T02:55:55.747Z,6.62
2018-06-21T02:58:29.751Z,6.37
2018-06-21T03:01:03.797Z,6.50
2018-06-21T03:03:37.685Z,6.57
2018-06-21T03:06:11.810Z,6.73
2018-06-21T03:08:45.546Z,6.90
2018-06-21T03:11:19.236Z,6.33
2018-06-21T03:13:53.477Z,6.92
2018-06-21T03:16:27.384Z,7.10
2018-06-21T03:19:01.249Z,7.15
2018-06-21T03:21:38.639Z,7.10
2018-06-21T03:24:12.699Z,7.23
2018-06-21T03:26:46.623Z,7.40
2018-06-21T03:29:20.568Z,7.87
2018-06-21T03:31:54.505Z,6.92
2018-06-21T03:34:28.330Z,6.60
2018-06-21T03:37:02.286Z,7.10
2018-06-21T03:39:36.569Z,6.93
2018-06-21T03:42:10.450Z,7.10
2018-06-21T03:44:44.786Z,6.80
2018-06-21T03:47:18.746Z,7.23
2018-06-21T03:49:52.731Z,6.90
2018-06-21T03:52:26.848Z,7.10
2018-06-21T03:55:01.174Z,6.08
2018-06-21T03:57:35.491Z,6.70
2018-06-21T04:00:09.292Z,7.00
2018-06-21T04:02:43.256Z,6.60
2018-06-21T04:05:17.280Z,6.60
2018-06-21T04:07:51.468Z,7.28
2018-06-21T04:10:25.391Z,7.40
2018-06-21T04:12:59.613Z,8.63
2018-06-21T04:15:33.760Z,8.18
2018-06-21T04:18:07.825Z,7.22
2018-06-21T04:20:41.533Z,6.72
2018-06-21T04:23:16.019Z,6.92
2018-06-21T04:25:50.016Z,7.28
2018-06-21T04:28:24.021Z,8.80
2018-06-21T04:30:58.580Z,7.37
2018-06-21T04:33:32.328Z,8.58
2018-06-21T04:36:06.329Z,7.62
2018-06-21T04:38:40.735Z,7.78
2018-06-21T04:41:14.610Z,7.50
2018-06-21T04:43:49.023Z,7.97
2018-06-21T04:46:23.035Z,8.08
2018-06-21T04:48:57.185Z,7.10
2018-06-21T04:51:30.924Z,8.23
2018-06-21T04:54:05.134Z,7.62
2018-06-21T04:56:39.533Z,7.75
2018-06-21T04:59:13.459Z,7.62
2018-06-21T05:01:47.574Z,7.80
2018-06-21T05:04:21.641Z,9.00
2018-06-21T05:06:55.649Z,7.22
2018-06-21T05:09:29.511Z,7.78
2018-06-21T05:12:03.441Z,8.13
2018-06-21T05:14:41.864Z,8.13
2018-06-21T05:17:15.800Z,7.80
2018-06-21T05:19:50.041Z,8.45
2018-06-21T05:22:24.075Z,7.95
2018-06-21T05:24:58.241Z,8.18
2018-06-21T05:27:32.104Z,8.30
2018-06-21T05:30:06.169Z,8.58
2018-06-21T05:32:40.761Z,8.53
2018-06-21T05:35:15.090Z,8.68
2018-06-21T05:37:49.051Z,8.20
2018-06-21T05:40:29.465Z,8.80
2018-06-21T05:43:04.070Z,8.60
2018-06-21T05:45:38.033Z,8.53
2018-06-21T05:48:12.071Z,9.05
2018-06-21T05:50:46.151Z,9.70
2018-06-21T05:53:20.183Z,10.40
2018-06-21T05:55:54.659Z,10.23
2018-06-21T05:58:28.648Z,9.93
2018-06-21T06:01:02.605Z,10.03
2018-06-21T06:03:36.731Z,11.93
2018-06-21T06:06:10.864Z,10.80
2018-06-21T06:08:44.811Z,11.53
2018-06-21T06:11:18.649Z,10.38
2018-06-21T06:13:52.610Z,10.95
2018-06-21T06:16:27.289Z,10.13
2018-06-21T06:19:01.353Z,11.05
2018-06-21T06:21:35.532Z,11.65
2018-06-21T06:24:09.686Z,11.48
2018-06-21T06:26:43.540Z,11.68
2018-06-21T06:29:17.360Z,14.85
2018-06-21T06:31:51.447Z,13.95
2018-06-21T06:34:25.589Z,15.65
2018-06-21T06:36:59.416Z,14.93
2018-06-21T06:39:33.624Z,14.80
2018-06-21T06:42:07.707Z,24.40
2018-06-21T06:44:41.596Z,25.57
2018-06-21T06:47:16.192Z,25.75
2018-06-21T06:49:50.406Z,23.80
2018-06-21T06:52:25.312Z,24.55
2018-06-21T06:54:59.502Z,22.90
2018-06-21T06:57:33.442Z,21.85
2018-06-21T07:00:07.624Z,21.42
2018-06-21T07:02:42.885Z,22.67
2018-06-21T07:05:16.960Z,22.80
2018-06-21T07:07:51.014Z,26.07
2018-06-21T07:10:25.194Z,27.10
2018-06-21T07:12:59.446Z,32.25
2018-06-21T07:15:33.552Z,33.45
2018-06-21T07:18:07.514Z,38.25
2018-06-21T07:20:41.708Z,42.25
2018-06-21T07:23:16.206Z,43.30
2018-06-21T07:25:50.741Z,45.58
2018-06-21T07:28:25.028Z,47.70
2018-06-21T07:31:03.991Z,48.90
2018-06-21T07:33:37.927Z,46.70
2018-06-21T07:36:11.892Z,49.70
2018-06-21T07:38:45.881Z,43.00
2018-06-21T07:41:19.776Z,35.70
2018-06-21T07:43:53.991Z,32.17
2018-06-21T07:46:28.025Z,32.35
2018-06-21T07:49:02.455Z,31.63
2018-06-21T07:51:36.675Z,24.33
2018-06-21T07:54:10.631Z,23.47
2018-06-21T07:56:44.921Z,19.70
2018-06-21T07:59:18.781Z,16.37
2018-06-21T08:01:52.495Z,12.17
2018-06-21T08:04:26.429Z,10.97
2018-06-21T08:07:01.102Z,7.35
2018-06-21T08:09:35.275Z,7.80
2018-06-21T08:12:09.192Z,6.60
2018-06-21T08:14:43.306Z,6.80
2018-06-21T08:17:17.506Z,7.63
2018-06-21T08:19:51.381Z,7.70
2018-06-21T08:22:25.370Z,7.37
2018-06-21T08:24:59.243Z,7.83
2018-06-21T08:27:33.894Z,7.77
2018-06-21T08:30:08.219Z,8.53
2018-06-21T08:32:42.271Z,8.50
2018-06-21T08:35:16.717Z,6.87
2018-06-21T08:37:50.672Z,5.77
2018-06-21T08:40:24.671Z,5.43
2018-06-21T08:42:58.726Z,6.70
2018-06-21T08:45:32.780Z,5.83
2018-06-21T08:48:06.779Z,6.43
2018-06-21T08:50:40.956Z,6.47
2018-06-21T08:53:15.151Z,6.40
2018-06-21T08:55:49.215Z,6.60
2018-06-21T08:58:23.187Z,7.10
2018-06-21T09:00:56.955Z,6.80
2018-06-21T09:03:30.981Z,7.00
2018-06-21T09:06:05.785Z,8.20
2018-06-21T09:08:39.684Z,7.43
2018-06-21T09:11:13.832Z,7.47
2018-06-21T09:13:47.777Z,6.63
2018-06-21T09:16:22.002Z,6.97
2018-06-21T09:18:55.902Z,7.03
2018-06-21T09:21:30.216Z,7.17
2018-06-21T09:24:04.364Z,8.17
2018-06-21T09:26:38.367Z,7.40
2018-06-21T09:29:12.438Z,7.10
2018-06-21T09:31:46.606Z,7.70
2018-06-21T09:34:20.756Z,8.37
2018-06-21T09:36:54.870Z,7.17
2018-06-21T09:39:34.604Z,6.57
2018-06-21T09:42:14.710Z,6.83
2018-06-21T09:44:54.500Z,5.93
2018-06-21T09:47:34.144Z,6.67
2018-06-21T09:50:08.434Z,6.47
2018-06-21T09:52:43.201Z,6.30
2018-06-21T09:55:17.238Z,5.93
2018-06-21T09:57:51.151Z,6.37
2018-06-21T10:00:30.748Z,5.17
2018-06-21T10:03:04.668Z,5.37
2018-06-21T10:05:38.481Z,5.50
2018-06-21T10:08:12.615Z,5.97
2018-06-21T10:10:46.634Z,4.30
2018-06-21T10:13:20.672Z,3.90
2018-06-21T10:15:55.041Z,3.70
2018-06-21T10:18:29.139Z,3.40
2018-06-21T10:21:03.345Z,3.00
2018-06-21T10:23:37.301Z,2.80
2018-06-21T10:26:11.863Z,2.60
2018-06-21T10:28:46.128Z,2.50
2018-06-21T10:31:20.585Z,2.25
2018-06-21T10:33:55.032Z,2.20
2018-06-21T10:36:29.891Z,2.20
2018-06-21T10:39:06.022Z,2.22
2018-06-21T10:41:40.193Z,1.90
2018-06-21T10:44:14.667Z,2.00
2018-06-21T10:46:48.419Z,1.90
2018-06-21T10:49:22.468Z,2.27
2018-06-21T10:51:56.471Z,2.15
2018-06-21T10:54:30.352Z,2.10
2018-06-21T10:57:04.185Z,2.30
2018-06-21T10:59:38.295Z,2.10
2018-06-21T11:02:13.036Z,2.30
2018-06-21T11:04:47.233Z,2.37
2018-06-21T11:07:21.415Z,2.47
2018-06-21T11:09:55.669Z,2.02
2018-06-21T11:12:30.004Z,2.13
2018-06-21T11:15:04.110Z,2.67
2018-06-21T11:17:38.285Z,3.17
2018-06-21T11:20:12.876Z,2.53
2018-06-21T11:22:46.990Z,2.27
2018-06-21T11:25:20.772Z,2.40
2018-06-21T11:27:55.117Z,2.30
2018-06-21T11:30:29.246Z,2.22
2018-06-21T11:33:03.254Z,2.50
2018-06-21T11:35:37.548Z,2.37
2018-06-21T11:38:11.495Z,2.15
2018-06-21T11:40:45.307Z,2.00
2018-06-21T11:43:19.418Z,2.10
2018-06-21T11:45:53.656Z,2.30
2018-06-21T11:48:27.921Z,1.90
2018-06-21T11:51:02.003Z,1.80
2018-06-21T11:53:36.243Z,1.95
2018-06-21T11:56:10.181Z,1.60
2018-06-21T11:58:44.364Z,1.85
2018-06-21T12:01:18.700Z,1.70
2018-06-21T12:03:52.612Z,1.85
2018-06-21T12:06:27.358Z,2.10
2018-06-21T12:09:01.604Z,1.80
2018-06-21T12:11:35.805Z,1.50
2018-06-21T12:14:10.279Z,1.70
2018-06-21T12:16:44.670Z,1.67
2018-06-21T12:19:18.777Z,1.45
2018-06-21T12:21:52.720Z,1.50
2018-06-21T12:24:28.161Z,1.47
2018-06-21T12:27:02.596Z,1.65
2018-06-21T12:29:36.400Z,1.60
2018-06-21T12:32:10.645Z,1.65
2018-06-21T12:34:44.807Z,1.52
2018-06-21T12:37:30.281Z,1.45
2018-06-21T12:40:04.276Z,1.47
2018-06-21T12:42:38.329Z,1.77
2018-06-21T12:45:12.176Z,1.80
2018-06-21T12:47:46.396Z,1.60
2018-06-21T12:50:20.503Z,1.50
2018-06-21T12:52:54.485Z,1.55
2018-06-21T12:55:28.459Z,1.90
2018-06-21T12:58:02.582Z,1.67
2018-06-21T13:00:38.045Z,1.50
2018-06-21T13:03:11.957Z,1.52
2018-06-21T13:05:45.986Z,1.60
2018-06-21T13:08:32.202Z,1.50
2018-06-21T13:12:19.160Z,1.42
2018-06-21T13:14:53.765Z,1.52
2018-06-21T13:17:29.036Z,1.87
2018-06-21T13:20:04.161Z,1.50
2018-06-21T13:22:38.314Z,1.30
2018-06-21T13:25:12.406Z,1.77
2018-06-21T13:27:46.525Z,1.85
2018-06-21T13:30:21.713Z,1.60
2018-06-21T13:32:56.300Z,1.47
2018-06-21T13:35:30.432Z,1.80
2018-06-21T13:38:04.680Z,1.82
2018-06-21T13:40:38.539Z,1.55
2018-06-21T13:43:12.963Z,1.82
2018-06-21T13:45:47.099Z,1.37
2018-06-21T13:48:21.684Z,1.60
2018-06-21T13:50:56.125Z,1.70
2018-06-21T13:53:30.499Z,1.60
2018-06-21T13:56:04.653Z,1.50
2018-06-21T13:58:38.880Z,1.98
2018-06-21T14:01:13.323Z,1.30
2018-06-21T14:03:47.281Z,1.65
2018-06-21T14:06:21.363Z,1.52
2018-06-21T14:08:59.834Z,1.50
2018-06-21T14:11:33.969Z,1.40
2018-06-21T14:14:08.310Z,1.67
2018-06-21T14:16:42.209Z,1.50
2018-06-21T14:19:16.540Z,1.60
2018-06-21T14:21:50.651Z,2.20
2018-06-21T14:24:25.159Z,2.20
2018-06-21T14:26:59.387Z,1.62
2018-06-21T14:29:36.473Z,1.62
2018-06-21T14:32:10.578Z,1.62
2018-06-21T14:34:44.709Z,1.57
2018-06-21T14:37:18.737Z,1.17
2018-06-21T14:39:53.024Z,1.15
2018-06-21T14:42:27.197Z,1.52
2018-06-21T14:45:01.511Z,1.35
2018-06-21T14:47:35.635Z,1.37
2018-06-21T14:50:09.740Z,1.92
2018-06-21T14:52:43.848Z,1.90
2018-06-21T14:55:17.938Z,1.70
2018-06-21T14:57:51.916Z,1.80
2018-06-21T15:00:26.291Z,1.82
2018-06-21T15:03:00.465Z,1.85
2018-06-21T15:05:35.073Z,1.42
2018-06-21T15:08:09.746Z,1.57
2018-06-21T15:10:43.933Z,1.67
2018-06-21T15:13:18.066Z,1.57
2018-06-21T15:15:52.074Z,1.30
2018-06-21T15:18:26.111Z,1.50
2018-06-21T15:21:00.545Z,1.90
2018-06-21T15:23:34.633Z,1.57
2018-06-21T15:26:08.710Z,1.27
2018-06-21T15:28:43.230Z,1.30
2018-06-21T15:31:17.191Z,1.50
2018-06-21T15:33:51.391Z,1.35
2018-06-21T15:36:28.541Z,1.20
2018-06-21T15:39:12.701Z,1.50
2018-06-21T15:41:47.045Z,1.42
2018-06-21T15:44:20.965Z,1.57
2018-06-21T15:47:01.821Z,1.47
2018-06-21T15:49:35.773Z,1.40
2018-06-21T15:52:09.781Z,1.55
2018-06-21T15:54:44.055Z,1.62
2018-06-21T15:57:17.927Z,1.75
2018-06-21T15:59:52.023Z,1.72
2018-06-21T16:02:26.011Z,1.90
2018-06-21T16:05:00.140Z,2.08
2018-06-21T16:07:34.404Z,1.67
2018-06-21T16:10:08.516Z,1.55
2018-06-21T16:12:43.475Z,1.42
2018-06-21T16:15:17.832Z,1.52
2018-06-21T16:18:00.328Z,1.50
2018-06-21T16:20:34.506Z,1.50
2018-06-21T16:23:08.703Z,1.40
2018-06-21T16:25:42.748Z,1.92
2018-06-21T16:28:16.911Z,1.85
2018-06-21T16:30:51.371Z,1.60
2018-06-21T16:33:25.348Z,1.32
2018-06-21T16:35:59.908Z,1.72
2018-06-21T16:38:34.276Z,1.40
2018-06-21T16:41:08.392Z,1.55
2018-06-21T16:43:42.415Z,1.25
2018-06-21T16:46:16.609Z,1.05
2018-06-21T16:48:50.506Z,1.30
2018-06-21T16:51:24.744Z,1.27
2018-06-21T16:53:58.682Z,1.55
2018-06-21T16:56:33.434Z,1.27
2018-06-21T16:59:07.700Z,1.62
2018-06-21T17:01:41.917Z,1.35
2018-06-21T17:04:16.258Z,1.22
2018-06-21T17:06:50.666Z,1.05
2018-06-21T17:09:25.461Z,1.30
2018-06-21T17:11:59.623Z,1.20
2018-06-21T17:14:33.973Z,1.22
2018-06-21T17:17:08.365Z,1.30
2018-06-21T17:19:42.822Z,1.32
2018-06-21T17:22:17.161Z,1.87
2018-06-21T17:24:51.496Z,1.40
2018-06-21T17:27:26.140Z,1.43
2018-06-21T17:30:01.126Z,1.10
2018-06-21T17:32:35.639Z,1.47
2018-06-21T17:35:10.015Z,1.30
2018-06-21T17:37:43.888Z,1.30
2018-06-21T17:40:17.915Z,1.00
2018-06-21T17:42:51.995Z,1.70
2018-06-21T17:45:26.261Z,1.20
2018-06-21T17:48:00.506Z,1.30
2018-06-21T17:50:34.670Z,1.10
2018-06-21T17:53:08.796Z,1.23
2018-06-21T17:55:43.055Z,1.00
2018-06-21T17:58:17.764Z,0.90
2018-06-21T18:00:51.873Z,0.90
2018-06-21T18:03:26.157Z,1.10
2018-06-21T18:06:00.324Z,1.37
2018-06-21T18:08:34.523Z,1.10
2018-06-21T18:11:08.961Z,1.00
2018-06-21T18:13:43.217Z,1.33
2018-06-21T18:16:17.295Z,1.30
2018-06-21T18:18:52.258Z,1.20
2018-06-21T18:21:26.477Z,1.20
2018-06-21T18:24:00.912Z,1.13
2018-06-21T18:26:39.544Z,1.80
2018-06-21T18:29:13.628Z,1.27
2018-06-21T18:31:47.761Z,1.27
2018-06-21T18:34:21.751Z,1.27
2018-06-21T18:36:55.751Z,1.33
2018-06-21T18:39:30.492Z,1.10
2018-06-21T18:42:04.763Z,1.30
2018-06-21T18:44:39.190Z,1.30
2018-06-21T18:47:13.477Z,1.33
2018-06-21T18:49:48.833Z,1.63
2018-06-21T18:52:22.652Z,1.50
2018-06-21T18:54:56.913Z,1.43
2018-06-21T18:57:30.811Z,1.33
2018-06-21T19:00:07.207Z,1.33
2018-06-21T19:02:41.466Z,1.60
2018-06-21T19:05:16.263Z,1.50
2018-06-21T19:07:56.166Z,1.07
2018-06-21T19:10:36.146Z,1.43
2018-06-21T19:13:10.312Z,1.40
2018-06-21T19:15:44.778Z,1.30
2018-06-21T19:18:19.133Z,2.00
2018-06-21T19:20:53.648Z,2.40
2018-06-21T19:23:27.782Z,1.50
2018-06-21T19:26:02.266Z,1.50
2018-06-21T19:28:36.414Z,1.63
2018-06-21T19:31:10.457Z,1.03
2018-06-21T19:33:44.869Z,1.10
2018-06-21T19:36:20.186Z,1.00
2018-06-21T19:38:54.535Z,1.60
2018-06-21T19:41:31.713Z,1.77
2018-06-21T19:44:06.110Z,2.00
2018-06-21T19:46:40.702Z,2.20
2018-06-21T19:49:14.708Z,2.30
2018-06-21T19:51:49.063Z,2.00
2018-06-21T19:54:23.006Z,2.10
2018-06-21T19:56:57.249Z,1.90
2018-06-21T19:59:31.363Z,2.10
2018-06-21T20:02:05.629Z,2.40
2018-06-21T20:04:39.871Z,2.60
2018-06-21T20:07:14.406Z,2.23
2018-06-21T20:09:48.816Z,2.70
2018-06-21T20:12:23.365Z,2.10
2018-06-21T20:14:58.035Z,2.20
2018-06-21T20:17:32.317Z,2.40
2018-06-21T20:20:11.661Z,2.20
2018-06-21T20:22:45.821Z,1.63
2018-06-21T20:25:20.020Z,1.90
2018-06-21T20:27:54.429Z,1.60
2018-06-21T20:30:28.811Z,1.50
2018-06-21T20:33:03.022Z,1.47
2018-06-21T20:35:37.680Z,1.70
2018-06-21T20:38:11.621Z,1.33
2018-06-21T20:40:45.857Z,1.67
2018-06-21T20:43:19.849Z,1.63
2018-06-21T20:45:53.987Z,1.70
2018-06-21T20:48:28.411Z,2.00
2018-06-21T20:51:02.537Z,1.63
2018-06-21T20:53:36.687Z,1.43
2018-06-21T20:56:10.887Z,1.77
2018-06-21T20:58:45.543Z,1.50
2018-06-21T21:01:19.462Z,1.80
2018-06-21T21:03:54.866Z,1.60
2018-06-21T21:06:28.689Z,1.70
2018-06-21T21:09:03.037Z,1.80
2018-06-21T21:11:37.303Z,1.73
2018-06-21T21:14:11.317Z,1.67
2018-06-21T21:16:45.626Z,1.80
2018-06-21T21:19:19.976Z,1.80
2018-06-21T21:21:54.396Z,1.97
2018-06-21T21:24:28.424Z,1.80
2018-06-21T21:27:02.470Z,2.00
2018-06-21T21:29:37.058Z,1.60
2018-06-21T21:32:17.924Z,1.60
2018-06-21T21:34:52.355Z,1.80
2018-06-21T21:37:26.997Z,1.77
2018-06-21T21:40:02.115Z,1.60
2018-06-21T21:42:38.098Z,1.80
2018-06-21T21:45:11.961Z,1.40
2018-06-21T21:47:45.896Z,1.80
2018-06-21T21:50:19.900Z,1.90
2018-06-21T21:52:53.832Z,1.80
2018-06-21T21:55:27.833Z,1.70
2018-06-21T21:58:01.798Z,1.60
2018-06-21T22:00:48.685Z,1.70
2018-06-21T22:03:22.679Z,1.80
2018-06-21T22:05:56.855Z,1.90
2018-06-21T22:08:31.595Z,1.90
2018-06-21T22:11:05.821Z,1.80
2018-06-21T22:13:39.872Z,1.70
2018-06-21T22:16:13.975Z,2.07
2018-06-21T22:18:48.236Z,2.67
2018-06-21T22:21:22.150Z,2.20
2018-06-21T22:23:56.050Z,2.07
2018-06-21T22:26:30.691Z,2.40
2018-06-21T22:29:04.784Z,2.10
2018-06-21T22:31:38.936Z,1.90
2018-06-21T22:34:13.233Z,2.53
2018-06-21T22:36:47.842Z,2.40
2018-06-21T22:39:22.206Z,2.67
2018-06-21T22:41:56.446Z,2.87
2018-06-21T22:44:30.502Z,2.10
2018-06-21T22:47:04.805Z,1.83
2018-06-21T22:49:39.004Z,2.00
2018-06-21T22:52:13.021Z,2.03
2018-06-21T22:54:47.425Z,2.20
2018-06-21T22:57:21.465Z,2.03
2018-06-21T22:59:55.919Z,2.17
2018-06-21T23:02:30.292Z,2.03
2018-06-21T23:05:04.215Z,2.47
2018-06-21T23:07:38.134Z,2.10
2018-06-21T23:10:12.207Z,2.00
2018-06-21T23:12:46.591Z,2.40
2018-06-21T23:15:20.378Z,2.17
2018-06-21T23:25:57.295Z,2.20
2018-06-21T23:28:31.688Z,1.97
2018-06-21T23:31:05.524Z,2.40
2018-06-21T23:33:39.603Z,2.30
2018-06-21T23:36:13.672Z,2.33
2018-06-21T23:38:47.699Z,2.40
2018-06-21T23:41:21.470Z,2.93
2018-06-21T23:43:55.905Z,2.17
2018-06-21T23:46:30.124Z,2.33
2018-06-21T23:49:04.020Z,2.30
2018-06-21T23:51:38.733Z,2.30
2018-06-21T23:54:13.690Z,2.63
2018-06-21T23:56:47.464Z,2.63
2018-06-21T23:59:21.696Z,2.63
